PWSweather.com
Personal Weather Stations
Station Observations
MARRWS
Allansford VictoriaAU 3277

Allansford VictoriaAU 3277

Lat: -38.4003683814149, Lon: 142.569826841354

Elevation: 36

Station Type: Fine Offset X7062

http://home.vicnet.net.au/~marr/Weather/

Latest ConditionsUpdated 6:00:03 AM GMT+10:10 Friday, Jul 25, 2014
Currently Today's Max Today's Min Today's Average
Temperature 51.3°F10.7°C 52.2°F11.2°C 50.9°F10.5°C 51.5°F10.8°C
Dew Point 49.9°F9.9°C 50.0°F10.0°C 48.1°F8.9°C 49.3°F9.6°C
Winds 2.2 mph N3.5 kmh N 5.6 mph NE9.0 kmh NE - 3.1 mph 5.0 kmh
Wind Gusts 9.2 mph14.8 kmh 9.8 mph15.8 kmh - -
Humidity 95% 95% 88% 92%
Pressure 30.01 in1016.3 mb 30.01 in1016.3 mb 29.96 in1014.6 mb -
Precipitation - 0.01 in0.3 mm - -
Hour Temp Dew Point Humidity Winds Wind Gusts Pressure Precip Precip Rate Daily Precip Total
06:00 AM 51.3°F10.7°C 49.9°F9.9°C 95% 2.2 mph N3.5 kmh N 9.2 mph14.8 kmh 30.01 in1016.3 mb 0.00 in0.0 mm 0.00 in/hr0.0 mm/hr 0.01 in0.3 mm
05:50 AM 51.3°F10.7°C 49.9°F9.9°C 95% 1.6 mph N2.6 kmh N 4.5 mph7.2 kmh 30.00 in1015.9 mb 0.00 in0.0 mm 0.00 in/hr0.0 mm/hr 0.01 in0.3 mm
05:40 AM 51.3°F10.7°C 49.9°F9.9°C 95% 2.6 mph N4.2 kmh N 6.0 mph9.7 kmh 30.00 in1015.9 mb 0.00 in0.0 mm 0.00 in/hr0.0 mm/hr 0.01 in0.3 mm
05:30 AM 51.3°F10.7°C 49.9°F9.9°C 95% 3.6 mph N5.8 kmh N 6.0 mph9.7 kmh 30.00 in1015.9 mb 0.00 in0.0 mm 0.00 in/hr0.0 mm/hr 0.01 in0.3 mm
05:20 AM 51.1°F10.6°C 49.7°F9.8°C 95% 3.0 mph N4.8 kmh N 6.9 mph11.1 kmh 29.99 in1015.6 mb 0.00 in0.0 mm 0.00 in/hr0.0 mm/hr 0.01 in0.3 mm
05:10 AM 50.9°F10.5°C 49.5°F9.7°C 95% 2.2 mph N3.5 kmh N 5.4 mph8.7 kmh 29.99 in1015.6 mb 0.00 in0.0 mm 0.00 in/hr0.0 mm/hr 0.01 in0.3 mm
05:00 AM 50.9°F10.5°C 49.5°F9.7°C 95% 2.4 mph N3.9 kmh N 5.4 mph8.7 kmh 29.99 in1015.6 mb 0.00 in0.0 mm 0.00 in/hr0.0 mm/hr 0.01 in0.3 mm
04:50 AM 50.9°F10.5°C 49.2°F9.6°C 94% 2.3 mph N3.7 kmh N 5.4 mph8.7 kmh 29.98 in1015.2 mb 0.00 in0.0 mm 0.00 in/hr0.0 mm/hr 0.01 in0.3 mm
04:40 AM 51.1°F10.6°C 49.4°F9.7°C 94% 2.9 mph NE4.7 kmh NE 6.0 mph9.7 kmh 29.98 in1015.2 mb 0.00 in0.0 mm 0.00 in/hr0.0 mm/hr 0.01 in0.3 mm
04:30 AM 50.9°F10.5°C 49.2°F9.6°C 94% 1.1 mph NNE1.8 kmh NNE 4.5 mph7.2 kmh 29.98 in1015.2 mb 0.00 in0.0 mm 0.00 in/hr0.0 mm/hr 0.01 in0.3 mm
04:20 AM 51.1°F10.6°C 49.4°F9.7°C 94% 1.5 mph NNW2.4 kmh NNW 4.5 mph7.2 kmh 29.98 in1015.2 mb 0.00 in0.0 mm 0.00 in/hr0.0 mm/hr 0.01 in0.3 mm
04:10 AM 51.4°F10.8°C 49.8°F9.9°C 94% 2.5 mph N4.0 kmh N 6.0 mph9.7 kmh 29.99 in1015.6 mb 0.00 in0.0 mm 0.00 in/hr0.0 mm/hr 0.01 in0.3 mm
04:00 AM 51.4°F10.8°C 49.8°F9.9°C 94% 1.9 mph N3.1 kmh N 6.0 mph9.7 kmh 29.98 in1015.2 mb 0.00 in0.0 mm 0.00 in/hr0.0 mm/hr 0.01 in0.3 mm
03:50 AM 51.4°F10.8°C 49.8°F9.9°C 94% 2.5 mph NNW4.0 kmh NNW 5.4 mph8.7 kmh 29.99 in1015.6 mb 0.00 in0.0 mm 0.00 in/hr0.0 mm/hr 0.01 in0.3 mm
03:40 AM 51.4°F10.8°C 49.8°F9.9°C 94% 1.8 mph N2.9 kmh N 5.4 mph8.7 kmh 29.98 in1015.2 mb 0.00 in0.0 mm 0.00 in/hr0.0 mm/hr 0.01 in0.3 mm
03:30 AM 51.8°F11.0°C 49.8°F9.9°C 93% 2.6 mph NNE4.2 kmh NNE 5.4 mph8.7 kmh 29.98 in1015.2 mb 0.01 in0.3 mm 0.00 in/hr0.0 mm/hr 0.01 in0.3 mm
03:20 AM 51.8°F11.0°C 49.8°F9.9°C 93% 2.4 mph N3.9 kmh N 5.4 mph8.7 kmh 29.98 in1015.2 mb 0.01 in0.3 mm 0.00 in/hr0.0 mm/hr 0.01 in0.3 mm
03:10 AM 52.0°F11.1°C 50.0°F10.0°C 93% 3.3 mph N5.3 kmh N 6.9 mph11.1 kmh 29.98 in1015.2 mb 0.01 in0.3 mm 0.00 in/hr0.0 mm/hr 0.01 in0.3 mm
03:00 AM 52.0°F11.1°C 50.0°F10.0°C 93% 3.0 mph NNW4.8 kmh NNW 6.0 mph9.7 kmh 29.98 in1015.2 mb 0.01 in0.3 mm 0.00 in/hr0.0 mm/hr 0.01 in0.3 mm
02:50 AM 52.2°F11.2°C 49.9°F9.9°C 92% 3.8 mph N6.1 kmh N 8.3 mph13.4 kmh 29.98 in1015.2 mb 0.01 in0.3 mm 0.00 in/hr0.0 mm/hr 0.01 in0.3 mm
02:40 AM 52.2°F11.2°C 49.9°F9.9°C 92% 3.9 mph N6.3 kmh N 9.2 mph14.8 kmh 29.98 in1015.2 mb 0.01 in0.3 mm 0.06 in/hr1.5 mm/hr 0.01 in0.3 mm
02:30 AM 52.0°F11.1°C 49.4°F9.7°C 91% 2.8 mph N4.5 kmh N 6.9 mph11.1 kmh 29.97 in1014.9 mb 0.00 in0.0 mm 0.00 in/hr0.0 mm/hr 0.00 in0.0 mm
02:20 AM 52.0°F11.1°C 49.4°F9.7°C 91% 2.4 mph N3.9 kmh N 6.9 mph11.1 kmh 29.97 in1014.9 mb 0.00 in0.0 mm 0.00 in/hr0.0 mm/hr 0.00 in0.0 mm
02:10 AM 52.0°F11.1°C 49.1°F9.5°C 90% 2.9 mph N4.7 kmh N 6.0 mph9.7 kmh 29.98 in1015.2 mb 0.00 in0.0 mm 0.00 in/hr0.0 mm/hr 0.00 in0.0 mm
02:00 AM 52.0°F11.1°C 49.1°F9.5°C 90% 3.5 mph N5.6 kmh N 6.9 mph11.1 kmh 29.98 in1015.2 mb 0.00 in0.0 mm 0.00 in/hr0.0 mm/hr 0.00 in0.0 mm
01:50 AM 51.8°F11.0°C 49.0°F9.4°C 90% 3.5 mph N5.6 kmh N 7.6 mph12.2 kmh 29.97 in1014.9 mb 0.00 in0.0 mm 0.00 in/hr0.0 mm/hr 0.00 in0.0 mm
01:40 AM 51.8°F11.0°C 49.0°F9.4°C 90% 3.8 mph N6.1 kmh N 9.8 mph15.8 kmh 29.97 in1014.9 mb 0.00 in0.0 mm 0.00 in/hr0.0 mm/hr 0.00 in0.0 mm
01:30 AM 51.8°F11.0°C 49.0°F9.4°C 90% 3.6 mph NNE5.8 kmh NNE 7.6 mph12.2 kmh 29.96 in1014.6 mb 0.00 in0.0 mm 0.00 in/hr0.0 mm/hr 0.00 in0.0 mm
01:20 AM 51.4°F10.8°C 48.9°F9.4°C 91% 3.4 mph N5.5 kmh N 7.6 mph12.2 kmh 29.97 in1014.9 mb 0.00 in0.0 mm 0.00 in/hr0.0 mm/hr 0.00 in0.0 mm
01:10 AM 51.4°F10.8°C 48.9°F9.4°C 91% 3.7 mph N6.0 kmh N 7.6 mph12.2 kmh 29.97 in1014.9 mb 0.00 in0.0 mm 0.00 in/hr0.0 mm/hr 0.00 in0.0 mm
01:00 AM 51.1°F10.6°C 48.5°F9.2°C 91% 3.3 mph N5.3 kmh N 6.9 mph11.1 kmh 29.97 in1014.9 mb 0.00 in0.0 mm 0.00 in/hr0.0 mm/hr 0.00 in0.0 mm
12:50 AM 50.9°F10.5°C 48.4°F9.1°C 91% 3.7 mph NE6.0 kmh NE 6.9 mph11.1 kmh 29.97 in1014.9 mb 0.00 in0.0 mm 0.00 in/hr0.0 mm/hr 0.00 in0.0 mm
12:40 AM 50.9°F10.5°C 48.1°F8.9°C 90% 3.5 mph NNE5.6 kmh NNE 6.9 mph11.1 kmh 29.97 in1014.9 mb 0.00 in0.0 mm 0.00 in/hr0.0 mm/hr 0.00 in0.0 mm
12:30 AM 51.4°F10.8°C 48.6°F9.2°C 90% 4.5 mph N7.2 kmh N 9.8 mph15.8 kmh 29.98 in1015.2 mb 0.00 in0.0 mm 0.00 in/hr0.0 mm/hr 0.00 in0.0 mm
12:20 AM 51.8°F11.0°C 48.7°F9.3°C 89% 5.2 mph NNE8.4 kmh NNE 8.3 mph13.4 kmh 29.97 in1014.9 mb 0.00 in0.0 mm 0.00 in/hr0.0 mm/hr 0.00 in0.0 mm
12:10 AM 51.8°F11.0°C 48.7°F9.3°C 89% 5.6 mph NE9.0 kmh NE 9.8 mph15.8 kmh 29.97 in1014.9 mb 0.00 in0.0 mm 0.00 in/hr0.0 mm/hr 0.00 in0.0 mm
12:00 AM 52.2°F11.2°C 48.7°F9.3°C 88% 4.7 mph NE7.6 kmh NE 8.3 mph13.4 kmh 29.98 in1015.2 mb 0.00 in0.0 mm 0.00 in/hr0.0 mm/hr 0.00 in0.0 mm